Time;durP1;ratioP1;P1;durP2;ratioP2;P2;SDS_P1;SDS_P2;PMS_P1;PMS_P2;Temp;Humidity;BMP_temperature;BMP_pressure;BME280_temperature;BME280_humidity;BME280_pressure;Samples;Min_cycle;Max_cycle;Signal;HPM_P1;HPM_P2
2022/07/11 00:02:23;;;;;;;4.2;9.2;;;;;;;13.3;100;98670;;;;
2022/07/11 00:13:23;;;;;;;2.3;6.1;;;;;;;13.3;100;98670;;;;
2022/07/11 00:23:23;;;;;;;2.3;6.1;;;;;;;13.3;100;98670;;;;
2022/07/11 00:34:23;;;;;;;2.3;6.1;;;;;;;13.3;100;98670;;;;
2022/07/11 00:44:23;;;;;;;3.6;7.3;;;;;;;13.3;100;98670;;;;
2022/07/11 00:55:23;;;;;;;3.6;7.3;;;;;;;13.2;100;98670;;;;
2022/07/11 01:05:23;;;;;;;3.6;7.3;;;;;;;13.3;100;98670;;;;
2022/07/11 01:15:24;;;;;;;3.2;7.8;;;;;;;13.3;100;98680;;;;
2022/07/11 01:26:23;;;;;;;3.2;7.8;;;;;;;13.3;100;98680;;;;
2022/07/11 01:36:23;;;;;;;3.2;7.8;;;;;;;13.4;100;98670;;;;
2022/07/11 01:47:23;;;;;;;2.7;6.6;;;;;;;13.1;100;98670;;;;
2022/07/11 01:57:23;;;;;;;2.7;6.6;;;;;;;13.1;100;98670;;;;
2022/07/11 02:08:23;;;;;;;3.3;7.5;;;;;;;13.2;100;98670;;;;
2022/07/11 02:18:23;;;;;;;3.3;7.5;;;;;;;13.1;100;98670;;;;
2022/07/11 02:29:23;;;;;;;3.3;7.5;;;;;;;13.1;100;98660;;;;
2022/07/11 02:39:24;;;;;;;2.6;6.5;;;;;;;13.1;100;98670;;;;
2022/07/11 02:49:23;;;;;;;2.6;6.5;;;;;;;13.1;100;98670;;;;
2022/07/11 02:59:23;;;;;;;2.6;6.5;;;;;;;13.1;100;98670;;;;
2022/07/11 03:09:23;;;;;;;2.6;4.7;;;;;;;13.3;100;98680;;;;
2022/07/11 03:20:23;;;;;;;2.6;4.7;;;;;;;13.1;100;98670;;;;
2022/07/11 03:30:23;;;;;;;2.6;4.7;;;;;;;13.2;100;98680;;;;
2022/07/11 03:41:23;;;;;;;2.1;4.1;;;;;;;13.2;100;98680;;;;
2022/07/11 03:51:23;;;;;;;2.1;4.1;;;;;;;13.2;100;98690;;;;
2022/07/11 04:01:23;;;;;;;2.1;4.1;;;;;;;13.1;100;98690;;;;
2022/07/11 04:12:23;;;;;;;2.1;4.8;;;;;;;13.2;100;98690;;;;
2022/07/11 04:22:24;;;;;;;2.1;4.8;;;;;;;13.3;100;98700;;;;
2022/07/11 04:33:23;;;;;;;2.1;4.8;;;;;;;13.4;100;98700;;;;
2022/07/11 04:44:23;;;;;;;2.7;6.1;;;;;;;13.4;100;98700;;;;
2022/07/11 04:55:23;;;;;;;2.7;6.1;;;;;;;13.4;100;98710;;;;
2022/07/11 05:05:23;;;;;;;2.7;6.1;;;;;;;13.5;100;98720;;;;
2022/07/11 05:16:23;;;;;;;2.8;6.2;;;;;;;13.5;100;98720;;;;
2022/07/11 05:26:23;;;;;;;2.8;6.2;;;;;;;14.1;100;98720;;;;
2022/07/11 05:37:23;;;;;;;4.5;9.1;;;;;;;14.4;100;98720;;;;
2022/07/11 05:47:23;;;;;;;4.5;9.1;;;;;;;14.7;100;98730;;;;
2022/07/11 05:57:23;;;;;;;4.5;9.1;;;;;;;15;100;98740;;;;
2022/07/11 06:17:23;;;;;;;3.9;7;;;;;;;15.3;100;98740;;;;
2022/07/11 06:28:23;;;;;;;3.9;7;;;;;;;15.8;100;98740;;;;
2022/07/11 06:38:23;;;;;;;2.6;5.6;;;;;;;15.6;100;98740;;;;
2022/07/11 06:49:23;;;;;;;2.6;5.6;;;;;;;15.4;100;98740;;;;
2022/07/11 06:59:23;;;;;;;2.6;5.6;;;;;;;15.6;100;98750;;;;
2022/07/11 07:10:25;;;;;;;2.8;7.4;;;;;;;15.9;100;98740;;;;
2022/07/11 07:21:25;;;;;;;2.8;7.4;;;;;;;16.9;100;98740;;;;
2022/07/11 07:32:23;;;;;;;2.8;7.4;;;;;;;16.6;100;98740;;;;
2022/07/11 07:43:23;;;;;;;2.6;6.2;;;;;;;17;100;98730;;;;
2022/07/11 07:54:23;;;;;;;2.6;6.2;;;;;;;17.1;100;98720;;;;
2022/07/11 08:05:23;;;;;;;2.6;6.2;;;;;;;18.1;100;98720;;;;
2022/07/11 08:15:23;;;;;;;2.5;5.5;;;;;;;18;100;98710;;;;
2022/07/11 08:25:23;;;;;;;2.5;5.5;;;;;;;18.2;100;98690;;;;
2022/07/11 08:36:23;;;;;;;2.4;6;;;;;;;17;100;98700;;;;
2022/07/11 08:47:23;;;;;;;2.4;6;;;;;;;16.9;100;98680;;;;
2022/07/11 08:57:24;;;;;;;2.4;6;;;;;;;17.4;100;98660;;;;
2022/07/11 09:08:23;;;;;;;4;12.3;;;;;;;18.1;100;98660;;;;
2022/07/11 09:18:23;;;;;;;4;12.3;;;;;;;18.5;100;98660;;;;
2022/07/11 09:29:24;;;;;;;4;12.3;;;;;;;18.6;100;98670;;;;
2022/07/11 09:39:23;;;;;;;2.2;7.9;;;;;;;17.8;100;98670;;;;
2022/07/11 09:49:23;;;;;;;2.2;7.9;;;;;;;17.5;100;98660;;;;
2022/07/11 09:59:24;;;;;;;2.2;7.9;;;;;;;17.6;100;98650;;;;
2022/07/11 10:10:23;;;;;;;2.9;7.3;;;;;;;18.9;100;98650;;;;
2022/07/11 10:20:23;;;;;;;2.9;7.3;;;;;;;19;100;98650;;;;
2022/07/11 10:30:23;;;;;;;2.9;7.3;;;;;;;18.7;100;98650;;;;
2022/07/11 10:41:23;;;;;;;1.5;5.1;;;;;;;19.3;100;98640;;;;
2022/07/11 10:52:24;;;;;;;1.5;5.1;;;;;;;19.3;100;98640;;;;
2022/07/11 11:03:23;;;;;;;1.5;5.1;;;;;;;18.4;100;98660;;;;
2022/07/11 11:13:24;;;;;;;2.2;5.3;;;;;;;15.1;100;98670;;;;
2022/07/11 11:23:24;;;;;;;2.2;5.3;;;;;;;13.7;100;98740;;;;
2022/07/11 11:34:24;;;;;;;2.2;5.3;;;;;;;12.6;100;98750;;;;
2022/07/11 11:45:23;;;;;;;1.9;5.5;;;;;;;12.4;100;98740;;;;
2022/07/11 11:55:23;;;;;;;1.9;5.5;;;;;;;12.6;100;98730;;;;
2022/07/11 12:06:24;;;;;;;1.4;3.4;;;;;;;13.4;100;98740;;;;
2022/07/11 12:17:23;;;;;;;1.4;3.4;;;;;;;14.8;100;98760;;;;
2022/07/11 12:28:23;;;;;;;1.4;3.4;;;;;;;15.6;100;98760;;;;
2022/07/11 12:39:24;;;;;;;1.3;3.8;;;;;;;15.9;100;98740;;;;
2022/07/11 12:50:24;;;;;;;1.3;3.8;;;;;;;16.8;100;98730;;;;
2022/07/11 13:01:24;;;;;;;1.3;3.8;;;;;;;16.5;100;98730;;;;
2022/07/11 13:11:24;;;;;;;1.1;2.9;;;;;;;17.1;100;98730;;;;
2022/07/11 13:22:23;;;;;;;1.1;2.9;;;;;;;16.7;100;98740;;;;
2022/07/11 13:33:24;;;;;;;1.1;2.9;;;;;;;17;100;98760;;;;
2022/07/11 13:44:23;;;;;;;1.2;3;;;;;;;17.4;100;98740;;;;
2022/07/11 13:54:23;;;;;;;1.2;3;;;;;;;17.2;100;98740;;;;
2022/07/11 14:04:24;;;;;;;1.2;3;;;;;;;17.2;100;98740;;;;
2022/07/11 14:15:23;;;;;;;0.7;2.9;;;;;;;17.9;100;98750;;;;
2022/07/11 14:25:23;;;;;;;0.7;2.9;;;;;;;17.7;100;98760;;;;
2022/07/11 14:36:24;;;;;;;1.1;3.1;;;;;;;17.7;100;98770;;;;
2022/07/11 14:46:23;;;;;;;1.1;3.1;;;;;;;17.4;100;98750;;;;
2022/07/11 14:56:23;;;;;;;1.1;3.1;;;;;;;16.7;100;98760;;;;
2022/07/11 15:17:24;;;;;;;0.7;2;;;;;;;16.4;100;98760;;;;
2022/07/11 15:27:24;;;;;;;0.7;2;;;;;;;16.6;100;98770;;;;
2022/07/11 15:38:26;;;;;;;0.9;2.6;;;;;;;17.2;100;98780;;;;
2022/07/11 15:48:24;;;;;;;0.9;2.6;;;;;;;18.6;100;98790;;;;
2022/07/11 15:59:23;;;;;;;0.9;2.6;;;;;;;22.3;100;98800;;;;
2022/07/11 16:09:23;;;;;;;0.8;1.9;;;;;;;22.6;94.2;98810;;;;
2022/07/11 16:19:25;;;;;;;0.8;1.9;;;;;;;23.9;90.5;98820;;;;
2022/07/11 16:29:24;;;;;;;0.8;1.9;;;;;;;21.8;95.9;98800;;;;
2022/07/11 16:50:23;;;;;;;0.7;2.1;;;;;;;20.4;94.8;98770;;;;
2022/07/11 17:00:23;;;;;;;0.7;2.1;;;;;;;19.1;100;98770;;;;
2022/07/11 17:10:26;;;;;;;0.6;1.6;;;;;;;18.1;100;98790;;;;
2022/07/11 17:21:24;;;;;;;0.6;1.6;;;;;;;17.4;100;98800;;;;
2022/07/11 17:32:24;;;;;;;0.6;1.6;;;;;;;16.8;100;98800;;;;
2022/07/11 17:42:24;;;;;;;1.7;5.7;;;;;;;16.3;100;98790;;;;
2022/07/11 17:53:24;;;;;;;1.7;5.7;;;;;;;16.3;100;98800;;;;
2022/07/11 18:04:24;;;;;;;1.7;5.7;;;;;;;16;100;98810;;;;
2022/07/11 18:14:24;;;;;;;1.5;4.6;;;;;;;13.5;100;98840;;;;
2022/07/11 18:25:24;;;;;;;1.5;4.6;;;;;;;12.3;100;98790;;;;
2022/07/11 18:35:23;;;;;;;1.5;4.6;;;;;;;12;100;98830;;;;
2022/07/11 18:46:24;;;;;;;1;3.1;;;;;;;11.8;100;98810;;;;
2022/07/11 18:56:24;;;;;;;1;3.1;;;;;;;11.6;100;98820;;;;
2022/07/11 19:07:24;;;;;;;1.3;4.1;;;;;;;11.7;100;98840;;;;
2022/07/11 19:17:24;;;;;;;1.3;4.1;;;;;;;11.7;100;98860;;;;
2022/07/11 19:28:24;;;;;;;1.3;4.1;;;;;;;11.7;100;98860;;;;
2022/07/11 19:38:23;;;;;;;1.6;3.7;;;;;;;11.8;100;98870;;;;
2022/07/11 19:49:24;;;;;;;1.6;3.7;;;;;;;11.7;100;98860;;;;
2022/07/11 19:59:23;;;;;;;1.6;3.7;;;;;;;11.7;100;98860;;;;
2022/07/11 20:10:24;;;;;;;1.1;3;;;;;;;11.5;100;98860;;;;
2022/07/11 20:20:24;;;;;;;1.1;3;;;;;;;11.4;100;98850;;;;
2022/07/11 20:31:24;;;;;;;1.1;3;;;;;;;11.1;100;98840;;;;
2022/07/11 20:42:24;;;;;;;1;2.2;;;;;;;11;100;98840;;;;
2022/07/11 20:52:24;;;;;;;1;2.2;;;;;;;11;100;98840;;;;
2022/07/11 21:03:24;;;;;;;1;2.2;;;;;;;11;100;98850;;;;
2022/07/11 21:13:24;;;;;;;1;2;;;;;;;11.2;100;98860;;;;
2022/07/11 21:24:24;;;;;;;1;2;;;;;;;11.1;100;98870;;;;
2022/07/11 21:34:24;;;;;;;1;2;;;;;;;11;100;98870;;;;
2022/07/11 21:45:24;;;;;;;1;2.7;;;;;;;11;100;98870;;;;
2022/07/11 21:55:24;;;;;;;1;2.7;;;;;;;11;100;98870;;;;
2022/07/11 22:05:24;;;;;;;1;2.7;;;;;;;10.9;100;98870;;;;
2022/07/11 22:16:24;;;;;;;1;2.4;;;;;;;10.9;100;98880;;;;
2022/07/11 22:26:24;;;;;;;1;2.4;;;;;;;10.8;100;98880;;;;
2022/07/11 22:37:23;;;;;;;1.5;2.8;;;;;;;10.8;100;98880;;;;
2022/07/11 22:47:24;;;;;;;1.5;2.8;;;;;;;10.9;100;98890;;;;
2022/07/11 22:57:24;;;;;;;1.5;2.8;;;;;;;10.9;100;98880;;;;
2022/07/11 23:07:24;;;;;;;1.1;2.6;;;;;;;10.9;100;98880;;;;
2022/07/11 23:18:24;;;;;;;1.1;2.6;;;;;;;11.1;100;98890;;;;
2022/07/11 23:29:24;;;;;;;1.1;2.6;;;;;;;11.2;100;98880;;;;
2022/07/11 23:39:24;;;;;;;1.6;3.3;;;;;;;11.3;100;98870;;;;
2022/07/11 23:50:24;;;;;;;1.6;3.3;;;;;;;11.4;100;98870;;;;
